Time;durP1;ratioP1;P1;durP2;ratioP2;P2;SDS_P1;SDS_P2;PMS_P1;PMS_P2;Temp;Humidity;BMP_temperature;BMP_pressure;BME280_temperature;BME280_humidity;BME280_pressure;Samples;Min_cycle;Max_cycle;Signal;HPM_P1;HPM_P2
2021/09/13 00:00:57;;;;;;;5.07;3.83;;;14.90;99.90;;;;;;5070354;28;20462;-73
2021/09/13 00:03:24;;;;;;;5.27;3.83;;;14.90;99.90;;;;;;5068771;28;20454;-73
2021/09/13 00:05:52;;;;;;;4.47;4.13;;;14.90;99.90;;;;;;5070364;28;20462;-73
2021/09/13 00:08:19;;;;;;;5.53;3.67;;;15.00;99.90;;;;;;5070398;28;20494;-73
2021/09/13 00:10:46;;;;;;;4.30;3.90;;;14.90;99.90;;;;;;5070092;28;20477;-73
2021/09/13 00:13:13;;;;;;;3.83;3.53;;;14.90;99.90;;;;;;5069891;28;20485;-73
2021/09/13 00:15:40;;;;;;;5.03;3.43;;;14.90;99.90;;;;;;5070093;28;20459;-74
2021/09/13 00:18:07;;;;;;;4.43;4.03;;;14.90;99.90;;;;;;5070143;28;20478;-73
2021/09/13 00:20:34;;;;;;;3.90;3.50;;;14.90;99.90;;;;;;5070146;28;20466;-74
2021/09/13 00:23:02;;;;;;;4.00;3.60;;;14.90;99.90;;;;;;5069634;28;20471;-74
2021/09/13 00:25:29;;;;;;;6.03;3.30;;;14.90;99.90;;;;;;5070214;28;20458;-74
2021/09/13 00:27:56;;;;;;;3.73;3.40;;;14.90;99.90;;;;;;5070032;28;20485;-73
2021/09/13 00:30:22;;;;;;;3.83;3.43;;;14.90;99.90;;;;;;5071513;28;20470;-71
2021/09/13 00:32:49;;;;;;;4.30;3.90;;;14.80;99.90;;;;;;5073445;28;20458;-72
2021/09/13 00:35:16;;;;;;;3.67;3.27;;;14.80;99.90;;;;;;5074448;28;20487;-71
2021/09/13 00:37:43;;;;;;;3.87;3.40;;;14.80;99.90;;;;;;5073913;28;20478;-71
2021/09/13 00:40:12;;;;;;;4.00;3.50;;;14.80;99.90;;;;;;5074429;28;20464;-72
2021/09/13 00:42:39;;;;;;;3.83;3.53;;;14.80;99.90;;;;;;5073507;28;20474;-72
2021/09/13 00:45:06;;;;;;;6.50;3.60;;;14.80;99.90;;;;;;5074196;28;20461;-71
2021/09/13 00:47:33;;;;;;;3.70;3.30;;;14.80;99.90;;;;;;5074135;28;20490;-71
2021/09/13 00:50:00;;;;;;;3.63;3.33;;;14.70;99.90;;;;;;5073771;28;20621;-72
2021/09/13 00:52:27;;;;;;;3.97;3.57;;;14.70;99.90;;;;;;5074053;28;20468;-72
2021/09/13 00:54:54;;;;;;;3.73;3.33;;;14.70;99.90;;;;;;5073149;28;20474;-72
2021/09/13 00:57:22;;;;;;;4.83;3.43;;;14.80;99.90;;;;;;5073954;28;20482;-72
2021/09/13 00:59:49;;;;;;;3.73;3.07;;;14.80;99.90;;;;;;5073397;28;20465;-72
2021/09/13 01:02:15;;;;;;;4.00;3.13;;;14.80;99.90;;;;;;5073902;28;20816;-71
2021/09/13 01:04:42;;;;;;;5.73;3.27;;;14.80;99.90;;;;;;5073122;28;20457;-71
2021/09/13 01:07:09;;;;;;;5.00;3.20;;;14.80;99.90;;;;;;5073537;28;20483;-72
2021/09/13 01:09:36;;;;;;;4.73;3.80;;;14.80;99.90;;;;;;5073555;28;20825;-71
2021/09/13 01:12:03;;;;;;;3.27;3.07;;;14.80;99.90;;;;;;5073589;28;20465;-71
2021/09/13 01:14:36;;;;;;;3.87;3.47;;;14.90;99.90;;;;;;5073114;28;20462;-72
2021/09/13 01:17:04;;;;;;;4.20;3.20;;;14.80;99.90;;;;;;5073290;28;20454;-72
2021/09/13 01:19:30;;;;;;;5.17;3.70;;;14.90;99.90;;;;;;5073467;28;20458;-72
2021/09/13 01:22:01;;;;;;;4.00;3.47;;;14.90;99.90;;;;;;5073295;28;20469;-72
2021/09/13 01:24:30;;;;;;;3.50;3.20;;;14.90;99.90;;;;;;5072575;28;20847;-71
2021/09/13 01:27:00;;;;;;;3.50;3.20;;;14.90;99.90;;;;;;5072966;28;20816;-72
2021/09/13 01:29:27;;;;;;;3.20;2.80;;;14.80;99.90;;;;;;5073015;28;20835;-72
2021/09/13 01:31:54;;;;;;;4.03;3.63;;;14.80;99.90;;;;;;5073218;28;20837;-72
2021/09/13 01:34:20;;;;;;;4.57;3.17;;;14.70;99.90;;;;;;5072428;28;20465;-72
2021/09/13 01:36:47;;;;;;;4.00;3.60;;;14.70;99.90;;;;;;5072847;28;20498;-72
2021/09/13 01:39:14;;;;;;;3.60;3.30;;;14.70;99.90;;;;;;5073228;28;20462;-71
2021/09/13 01:41:43;;;;;;;3.57;3.13;;;14.70;99.90;;;;;;5071685;28;20463;-71
2021/09/13 01:44:10;;;;;;;4.30;3.00;;;14.60;99.90;;;;;;5072603;28;20458;-71
2021/09/13 01:46:37;;;;;;;4.83;3.67;;;14.60;99.90;;;;;;5072724;28;20469;-71
2021/09/13 01:49:04;;;;;;;3.90;3.43;;;14.60;99.90;;;;;;5072850;28;20856;-71
2021/09/13 01:51:31;;;;;;;3.77;3.47;;;14.60;99.90;;;;;;5072732;28;20462;-71
2021/09/13 01:53:58;;;;;;;3.90;3.50;;;14.50;99.90;;;;;;5072154;28;20462;-72
2021/09/13 01:56:24;;;;;;;3.60;3.30;;;14.50;99.90;;;;;;5072643;28;20817;-71
2021/09/13 01:58:52;;;;;;;3.27;2.97;;;14.40;99.90;;;;;;5072342;28;20479;-71
2021/09/13 02:01:20;;;;;;;4.13;3.40;;;14.40;99.90;;;;;;5072794;28;20462;-71
2021/09/13 02:03:47;;;;;;;4.57;4.17;;;14.40;99.90;;;;;;5071654;28;20458;-71
2021/09/13 02:06:15;;;;;;;3.90;3.50;;;14.40;99.90;;;;;;5072794;28;20466;-71
2021/09/13 02:08:41;;;;;;;3.70;3.40;;;14.30;99.90;;;;;;5072078;28;20486;-71
2021/09/13 02:11:08;;;;;;;4.13;3.77;;;14.30;99.90;;;;;;5072665;28;20459;-71
2021/09/13 02:13:35;;;;;;;4.37;3.93;;;14.30;99.90;;;;;;5072031;28;20466;-71
2021/09/13 02:16:04;;;;;;;4.30;3.57;;;14.30;99.90;;;;;;5072230;28;20458;-71
2021/09/13 02:18:30;;;;;;;4.43;3.37;;;14.20;99.90;;;;;;5072338;28;20482;-71
2021/09/13 02:20:57;;;;;;;3.90;3.50;;;14.20;99.90;;;;;;5071945;28;20458;-71
2021/09/13 02:23:24;;;;;;;3.80;3.50;;;14.20;99.90;;;;;;5071869;28;20473;-71
2021/09/13 02:25:51;;;;;;;4.13;3.73;;;14.20;99.90;;;;;;5071906;28;20491;-71
2021/09/13 02:28:17;;;;;;;6.23;3.63;;;14.20;99.90;;;;;;5072230;28;20485;-71
2021/09/13 02:30:44;;;;;;;4.37;3.30;;;14.10;99.90;;;;;;5072084;28;20483;-72
2021/09/13 02:33:12;;;;;;;4.60;4.20;;;14.10;99.90;;;;;;5071418;28;20593;-72
2021/09/13 02:35:39;;;;;;;4.13;3.73;;;14.10;99.90;;;;;;5071964;28;20612;-72
2021/09/13 02:38:06;;;;;;;6.87;3.53;;;14.10;99.90;;;;;;5071863;28;20823;-72
2021/09/13 02:40:32;;;;;;;4.50;3.73;;;14.10;99.90;;;;;;5071961;28;20470;-72
2021/09/13 02:42:59;;;;;;;5.10;3.97;;;14.10;99.90;;;;;;5071048;28;20830;-72
2021/09/13 02:45:26;;;;;;;4.63;3.80;;;14.10;99.90;;;;;;5071871;28;20466;-72
2021/09/13 02:47:52;;;;;;;4.50;4.10;;;14.10;99.90;;;;;;5071486;28;20482;-72
2021/09/13 02:50:20;;;;;;;4.27;3.87;;;14.10;99.90;;;;;;5071573;28;20491;-72
2021/09/13 02:52:47;;;;;;;3.97;3.67;;;14.10;99.90;;;;;;5071494;28;20467;-74
2021/09/13 02:55:14;;;;;;;3.97;3.57;;;14.10;99.90;;;;;;5071081;28;20465;-74
2021/09/13 02:57:43;;;;;;;10.80;3.87;;;14.10;99.90;;;;;;5071483;28;20463;-74
2021/09/13 03:00:11;;;;;;;3.80;3.40;;;14.10;99.90;;;;;;5071637;28;20466;-74
2021/09/13 03:02:38;;;;;;;4.60;4.20;;;14.10;99.90;;;;;;5053739;28;20490;-74
2021/09/13 03:05:05;;;;;;;4.13;3.83;;;14.10;99.90;;;;;;5071179;28;20470;-74
2021/09/13 03:07:33;;;;;;;3.90;3.50;;;14.00;99.90;;;;;;5071214;28;20478;-74
2021/09/13 03:10:00;;;;;;;4.57;4.13;;;14.00;99.90;;;;;;5071213;28;20483;-74
2021/09/13 03:12:27;;;;;;;6.00;3.70;;;14.00;99.90;;;;;;5070883;28;20481;-74
2021/09/13 03:14:53;;;;;;;4.70;4.30;;;14.00;99.90;;;;;;5070773;28;20458;-73
2021/09/13 03:17:20;;;;;;;4.07;3.77;;;14.00;99.90;;;;;;5071079;28;20482;-74
2021/09/13 03:19:47;;;;;;;3.83;3.50;;;13.90;99.90;;;;;;5071064;28;20458;-74
2021/09/13 03:22:13;;;;;;;4.37;3.80;;;13.90;99.90;;;;;;5071329;28;20469;-74
2021/09/13 03:24:41;;;;;;;4.60;4.20;;;14.00;99.90;;;;;;5070249;28;20511;-74
2021/09/13 03:27:08;;;;;;;3.70;3.40;;;13.90;99.90;;;;;;5070647;28;20893;-74
2021/09/13 03:29:37;;;;;;;7.33;3.70;;;13.90;99.90;;;;;;5070693;28;20478;-74
2021/09/13 03:32:04;;;;;;;5.43;4.93;;;13.80;99.90;;;;;;5071032;28;20470;-73
2021/09/13 03:34:31;;;;;;;4.83;4.00;;;13.80;99.90;;;;;;5070314;28;20465;-73
2021/09/13 03:36:59;;;;;;;5.73;4.20;;;13.80;99.90;;;;;;5070743;28;20485;-73
2021/09/13 03:39:25;;;;;;;4.50;4.10;;;13.80;99.90;;;;;;5070887;28;20838;-73
2021/09/13 03:41:54;;;;;;;3.93;3.47;;;13.80;99.90;;;;;;5070471;28;20942;-74
2021/09/13 03:44:21;;;;;;;3.90;3.60;;;13.80;99.90;;;;;;5070328;28;20462;-74
2021/09/13 03:46:47;;;;;;;6.23;3.70;;;13.70;99.90;;;;;;5070300;28;20470;-73
2021/09/13 03:49:14;;;;;;;4.63;4.23;;;13.70;99.90;;;;;;5070933;28;20489;-72
2021/09/13 03:51:41;;;;;;;5.70;4.07;;;13.70;99.90;;;;;;5070586;28;20489;-73
2021/09/13 03:54:07;;;;;;;10.60;3.90;;;13.70;99.90;;;;;;5070242;28;20466;-74
2021/09/13 03:56:34;;;;;;;4.00;3.70;;;13.70;99.90;;;;;;5069960;28;20467;-73
2021/09/13 03:59:02;;;;;;;11.13;5.17;;;13.60;99.90;;;;;;5069620;28;20486;-73
2021/09/13 04:01:32;;;;;;;4.53;4.07;;;13.60;99.90;;;;;;5066505;28;20469;-74
2021/09/13 04:04:00;;;;;;;4.50;3.80;;;13.60;99.90;;;;;;5065716;28;20200;-74
2021/09/13 04:06:38;;;;;;;3.73;3.43;;;13.60;99.90;;;;;;5071485;28;20543;-74
2021/09/13 04:11:53;;;;;;;5.23;3.73;;;13.60;99.90;;;;;;5078815;28;20441;-74
2021/09/13 04:14:22;;;;;;;3.77;3.47;;;13.60;99.90;;;;;;5089826;28;20530;-74
2021/09/13 04:16:48;;;;;;;5.90;3.93;;;13.60;99.90;;;;;;5090056;28;20484;-74
2021/09/13 04:19:15;;;;;;;4.43;4.00;;;13.50;99.90;;;;;;5090577;28;20464;-74
2021/09/13 04:21:42;;;;;;;6.20;3.90;;;13.50;99.90;;;;;;5090252;28;20526;-74
2021/09/13 04:24:09;;;;;;;5.30;4.17;;;13.50;99.90;;;;;;5067021;28;20466;-73
2021/09/13 04:26:36;;;;;;;4.20;3.80;;;13.50;99.90;;;;;;5070089;28;20458;-73
2021/09/13 04:29:03;;;;;;;4.40;3.97;;;13.50;99.90;;;;;;5069859;28;20498;-74
2021/09/13 04:31:31;;;;;;;4.40;3.80;;;13.50;99.90;;;;;;5070072;28;20835;-74
2021/09/13 04:33:58;;;;;;;4.47;4.07;;;13.40;99.90;;;;;;5069039;28;20469;-74
2021/09/13 04:36:25;;;;;;;4.37;4.00;;;13.40;99.90;;;;;;5070183;28;20462;-74
2021/09/13 04:38:52;;;;;;;4.00;3.50;;;13.40;99.90;;;;;;5069563;28;20474;-73
2021/09/13 04:41:19;;;;;;;4.40;4.00;;;13.40;99.90;;;;;;5070239;28;20524;-73
2021/09/13 04:43:47;;;;;;;5.63;4.10;;;13.40;99.90;;;;;;5069288;28;20466;-74
2021/09/13 04:46:14;;;;;;;4.60;4.20;;;13.30;99.90;;;;;;5069930;28;20462;-73
2021/09/13 04:48:42;;;;;;;3.63;3.33;;;13.30;99.90;;;;;;5069898;28;20997;-73
2021/09/13 04:51:09;;;;;;;4.37;3.97;;;13.30;99.90;;;;;;5069733;28;20490;-73
2021/09/13 04:53:35;;;;;;;4.10;3.70;;;13.30;99.90;;;;;;5069594;28;20482;-73
2021/09/13 04:56:03;;;;;;;3.73;3.40;;;13.30;99.90;;;;;;5069710;28;20463;-73
2021/09/13 04:58:29;;;;;;;4.23;3.80;;;13.30;99.90;;;;;;5069741;28;20482;-73
2021/09/13 05:00:56;;;;;;;4.00;3.70;;;13.30;99.90;;;;;;5068647;28;20459;-74
2021/09/13 05:03:23;;;;;;;4.30;3.90;;;13.30;99.90;;;;;;5068922;28;20462;-73
2021/09/13 05:05:51;;;;;;;4.97;4.50;;;13.30;99.90;;;;;;5069470;28;20458;-73
2021/09/13 05:08:17;;;;;;;3.53;3.23;;;13.30;99.90;;;;;;5069543;28;20489;-73
2021/09/13 05:10:44;;;;;;;8.60;3.67;;;13.30;99.90;;;;;;5069627;28;20487;-74
2021/09/13 05:13:11;;;;;;;4.93;4.13;;;13.30;99.90;;;;;;5069098;28;20469;-74
2021/09/13 05:15:37;;;;;;;4.60;4.20;;;13.30;99.90;;;;;;5069585;28;20484;-73
2021/09/13 05:18:04;;;;;;;4.83;4.40;;;13.30;99.90;;;;;;5072375;28;20985;-73
2021/09/13 05:20:31;;;;;;;4.40;4.00;;;13.30;99.90;;;;;;5072382;28;20450;-73
2021/09/13 05:25:27;;;;;;;6.60;4.10;;;13.20;99.90;;;;;;5049194;28;20478;-66
2021/09/13 05:27:53;;;;;;;4.93;4.47;;;13.20;99.90;;;;;;5052992;28;20475;-66
2021/09/13 05:30:20;;;;;;;4.33;3.93;;;13.20;99.90;;;;;;5052660;28;20487;-66
2021/09/13 05:32:47;;;;;;;6.47;5.87;;;13.20;99.90;;;;;;5052762;28;20459;-66
2021/09/13 05:35:14;;;;;;;5.20;4.07;;;13.20;99.90;;;;;;5052346;28;20474;-66
2021/09/13 05:37:41;;;;;;;4.43;4.03;;;13.20;99.90;;;;;;5052018;28;20880;-66
2021/09/13 05:40:09;;;;;;;4.97;4.50;;;13.20;99.90;;;;;;5052810;28;20459;-66
2021/09/13 05:42:37;;;;;;;6.63;4.10;;;13.20;99.90;;;;;;5052483;28;20577;-66
2021/09/13 05:45:04;;;;;;;4.93;4.10;;;13.30;99.90;;;;;;5052017;28;20534;-66
2021/09/13 05:47:31;;;;;;;10.43;4.47;;;13.30;99.90;;;;;;5052364;28;20854;-66
2021/09/13 05:49:59;;;;;;;5.50;4.50;;;13.30;99.90;;;;;;5052657;28;20479;-66
2021/09/13 05:52:26;;;;;;;4.90;4.40;;;13.30;99.90;;;;;;5052467;28;20474;-66
2021/09/13 05:54:52;;;;;;;4.90;4.50;;;13.30;99.90;;;;;;5051861;28;20955;-66
2021/09/13 05:57:19;;;;;;;4.73;4.30;;;13.40;99.90;;;;;;5052788;28;20483;-66
2021/09/13 05:59:47;;;;;;;4.20;3.80;;;13.40;99.90;;;;;;5052776;28;20974;-66
2021/09/13 06:02:16;;;;;;;6.50;4.90;;;13.40;99.90;;;;;;5052948;28;20455;-66
2021/09/13 06:04:43;;;;;;;4.93;4.43;;;13.40;99.90;;;;;;5051422;28;20558;-66
2021/09/13 06:07:11;;;;;;;5.17;4.63;;;13.50;99.90;;;;;;5052428;28;20487;-66
2021/09/13 06:09:38;;;;;;;6.20;5.60;;;13.50;99.90;;;;;;5051708;28;20509;-66
2021/09/13 06:12:05;;;;;;;4.80;4.20;;;13.50;99.90;;;;;;5052129;28;20456;-66
2021/09/13 06:14:32;;;;;;;5.20;3.90;;;13.60;99.90;;;;;;5051563;28;20509;-66
2021/09/13 06:17:00;;;;;;;4.80;4.30;;;13.60;99.90;;;;;;5051782;28;20951;-66
2021/09/13 06:19:27;;;;;;;5.43;4.83;;;13.60;99.90;;;;;;5052052;28;20470;-66
2021/09/13 06:21:53;;;;;;;4.77;4.27;;;13.70;99.90;;;;;;5051739;28;20896;-66
2021/09/13 06:24:20;;;;;;;4.60;4.30;;;13.70;99.90;;;;;;5062442;28;20474;-66
2021/09/13 06:26:47;;;;;;;4.70;4.30;;;13.80;99.90;;;;;;5071396;28;20465;-66
2021/09/13 06:29:14;;;;;;;5.23;4.73;;;13.90;99.90;;;;;;5070946;28;20459;-66
2021/09/13 06:31:41;;;;;;;5.03;4.63;;;13.90;99.90;;;;;;5071240;28;20486;-66
2021/09/13 06:34:15;;;;;;;4.90;4.33;;;14.00;99.90;;;;;;5070947;28;20454;-66
2021/09/13 06:36:42;;;;;;;4.70;4.30;;;14.10;99.90;;;;;;5071433;28;20473;-66
2021/09/13 06:39:09;;;;;;;7.67;4.50;;;14.10;99.90;;;;;;5071422;28;20488;-66
2021/09/13 06:41:35;;;;;;;4.67;4.27;;;14.20;99.90;;;;;;5071330;28;20455;-66
2021/09/13 06:44:02;;;;;;;4.40;3.97;;;14.30;99.90;;;;;;5070815;28;20465;-66
2021/09/13 06:46:40;;;;;;;4.63;4.23;;;14.40;99.90;;;;;;5071302;28;20557;-66
2021/09/13 06:49:09;;;;;;;4.73;4.33;;;14.50;99.90;;;;;;5066716;28;21121;-66
2021/09/13 06:51:36;;;;;;;5.90;5.30;;;14.50;99.90;;;;;;5065172;28;20553;-66
2021/09/13 06:54:03;;;;;;;5.70;5.20;;;14.70;99.90;;;;;;5066815;28;20474;-66
2021/09/13 06:56:29;;;;;;;6.03;5.53;;;14.80;99.90;;;;;;5069101;28;20459;-66
2021/09/13 06:58:56;;;;;;;5.63;5.13;;;14.90;99.90;;;;;;5069529;28;20850;-66
2021/09/13 07:01:23;;;;;;;5.80;5.30;;;15.10;99.90;;;;;;5069323;28;20550;-66
2021/09/13 07:03:57;;;;;;;5.90;5.30;;;15.20;99.90;;;;;;5068826;28;20561;-66
2021/09/13 07:06:26;;;;;;;6.53;5.87;;;15.30;99.90;;;;;;5069488;28;20641;-66
2021/09/13 07:08:52;;;;;;;9.90;6.17;;;15.50;99.90;;;;;;5069390;28;20496;-66
2021/09/13 07:11:19;;;;;;;6.83;6.23;;;15.60;99.90;;;;;;5069680;28;20486;-66
2021/09/13 07:13:46;;;;;;;7.00;5.70;;;15.70;99.90;;;;;;5068808;28;20492;-66
2021/09/13 07:16:12;;;;;;;7.07;6.07;;;15.90;99.90;;;;;;5069145;28;20462;-66
2021/09/13 07:18:39;;;;;;;8.53;6.13;;;16.00;99.90;;;;;;5069251;28;20487;-67
2021/09/13 07:21:06;;;;;;;6.67;6.00;;;16.10;99.90;;;;;;5069418;28;20467;-66
2021/09/13 07:23:34;;;;;;;6.90;6.30;;;16.20;99.90;;;;;;5068681;28;20514;-66
2021/09/13 07:26:01;;;;;;;7.57;5.80;;;16.40;99.90;;;;;;5069336;28;20462;-65
2021/09/13 07:28:28;;;;;;;5.63;5.00;;;16.60;99.90;;;;;;5069302;28;21012;-66
2021/09/13 07:30:54;;;;;;;5.67;5.03;;;16.70;99.90;;;;;;5069005;28;20489;-66
2021/09/13 07:33:21;;;;;;;5.30;4.90;;;16.90;99.90;;;;;;5068458;28;20480;-66
2021/09/13 07:35:48;;;;;;;4.97;4.53;;;17.10;99.90;;;;;;5068977;28;20478;-66
2021/09/13 07:38:14;;;;;;;5.37;4.50;;;17.30;99.90;;;;;;5069086;28;20485;-66
2021/09/13 07:40:43;;;;;;;4.20;3.90;;;17.50;99.90;;;;;;5067946;28;20458;-66
2021/09/13 07:43:13;;;;;;;5.00;4.60;;;17.70;99.90;;;;;;5069196;28;20474;-66
2021/09/13 07:45:40;;;;;;;6.43;5.73;;;17.90;99.90;;;;;;5068050;28;20868;-66
2021/09/13 07:48:07;;;;;;;8.63;5.50;;;18.10;99.90;;;;;;5069043;28;20518;-66
2021/09/13 07:50:34;;;;;;;5.80;3.93;;;18.30;99.90;;;;;;5068689;28;20495;-66
2021/09/13 07:53:00;;;;;;;5.60;4.93;;;18.40;99.90;;;;;;5068965;28;20454;-66
2021/09/13 07:55:27;;;;;;;6.27;5.20;;;18.60;99.90;;;;;;5068351;28;20463;-66
2021/09/13 07:57:55;;;;;;;5.30;4.80;;;18.70;99.90;;;;;;5067368;28;20942;-66
2021/09/13 08:00:22;;;;;;;6.03;5.43;;;18.90;99.90;;;;;;5070069;28;20459;-67
2021/09/13 08:02:49;;;;;;;7.83;4.40;;;19.00;99.90;;;;;;5066080;28;20465;-66
2021/09/13 08:05:15;;;;;;;4.53;4.13;;;19.10;99.90;;;;;;5069821;28;20455;-66
2021/09/13 08:07:42;;;;;;;4.53;4.13;;;19.30;99.90;;;;;;5079352;28;20556;-67
2021/09/13 08:10:10;;;;;;;5.07;4.27;;;19.40;99.90;;;;;;5089558;28;20468;-67
2021/09/13 08:12:37;;;;;;;4.97;4.47;;;19.60;99.90;;;;;;5085315;28;20489;-66
2021/09/13 08:15:06;;;;;;;4.93;4.00;;;19.70;99.90;;;;;;5069503;28;20465;-66
2021/09/13 08:17:33;;;;;;;5.20;3.90;;;19.90;99.90;;;;;;5070013;28;20479;-66
2021/09/13 08:20:00;;;;;;;4.90;4.40;;;20.00;99.90;;;;;;5069913;28;20468;-66
2021/09/13 08:22:26;;;;;;;5.03;4.53;;;20.10;99.90;;;;;;5061954;28;20519;-67
2021/09/13 08:24:54;;;;;;;4.67;4.27;;;20.20;99.90;;;;;;5067881;28;20474;-66
2021/09/13 08:27:21;;;;;;;5.47;4.17;;;20.20;99.90;;;;;;5068509;28;20486;-66
2021/09/13 08:29:48;;;;;;;4.63;4.03;;;20.30;99.90;;;;;;5068266;28;20490;-67
2021/09/13 08:32:16;;;;;;;3.60;3.30;;;20.40;99.90;;;;;;5068501;28;20483;-67
2021/09/13 08:34:43;;;;;;;7.17;3.30;;;20.60;99.90;;;;;;5067875;28;20470;-67
2021/09/13 08:37:10;;;;;;;3.70;3.40;;;20.70;99.90;;;;;;5068634;28;20478;-67
2021/09/13 08:39:37;;;;;;;4.33;3.43;;;20.80;99.90;;;;;;5068059;28;20469;-66
2021/09/13 08:42:03;;;;;;;3.43;3.13;;;21.00;99.90;;;;;;5068712;28;20454;-66
2021/09/13 08:44:33;;;;;;;3.50;3.20;;;21.10;99.90;;;;;;5067700;28;21116;-66
2021/09/13 08:47:03;;;;;;;4.30;3.20;;;21.20;99.90;;;;;;5068321;28;20458;-67
2021/09/13 08:49:34;;;;;;;4.20;3.40;;;21.30;99.90;;;;;;5068411;28;20459;-67
2021/09/13 08:52:03;;;;;;;3.87;3.40;;;21.40;99.90;;;;;;5070391;28;20610;-66
2021/09/13 08:54:31;;;;;;;3.40;3.10;;;21.50;99.90;;;;;;5071593;28;20953;-67
2021/09/13 08:57:00;;;;;;;3.83;3.53;;;21.50;99.90;;;;;;5071965;28;20983;-67
2021/09/13 08:59:27;;;;;;;4.17;3.77;;;21.60;99.90;;;;;;5072082;28;20899;-66
2021/09/13 09:01:55;;;;;;;6.03;3.70;;;21.70;99.90;;;;;;5071080;28;20477;-67
2021/09/13 09:04:22;;;;;;;5.03;3.60;;;21.90;99.90;;;;;;5070481;28;20454;-66
2021/09/13 09:06:51;;;;;;;3.77;3.47;;;22.00;99.90;;;;;;5072346;28;20954;-67
2021/09/13 09:09:20;;;;;;;4.97;3.40;;;22.00;99.90;;;;;;5072325;28;20469;-66
2021/09/13 09:11:53;;;;;;;5.03;3.80;;;22.20;99.90;;;;;;5071873;28;20486;-66
2021/09/13 09:14:27;;;;;;;4.37;4.07;;;22.20;99.90;;;;;;5071682;28;20560;-66
2021/09/13 09:16:58;;;;;;;4.73;4.27;;;22.30;99.90;;;;;;5072127;28;20455;-66
2021/09/13 09:19:24;;;;;;;5.43;4.40;;;22.30;99.90;;;;;;5072253;28;20469;-66
2021/09/13 09:21:53;;;;;;;10.10;4.87;;;22.40;99.90;;;;;;5072068;28;20973;-66
2021/09/13 09:24:20;;;;;;;5.40;4.70;;;22.40;99.90;;;;;;5071195;28;20568;-66
2021/09/13 09:27:01;;;;;;;5.90;4.03;;;22.50;99.90;;;;;;5072783;28;20458;-67
2021/09/13 09:29:29;;;;;;;4.90;4.47;;;22.60;99.90;;;;;;5073310;28;20824;-66
2021/09/13 09:31:58;;;;;;;5.17;4.67;;;22.70;99.90;;;;;;5072653;28;20996;-66
2021/09/13 09:34:27;;;;;;;5.60;4.37;;;22.70;99.90;;;;;;5072597;28;20458;-67
2021/09/13 09:37:08;;;;;;;5.60;4.37;;;22.90;99.90;;;;;;5068098;28;20466;-67
2021/09/13 09:39:36;;;;;;;6.13;4.17;;;22.90;99.90;;;;;;5063945;28;20498;-66
2021/09/13 09:42:04;;;;;;;5.40;4.40;;;23.00;99.90;;;;;;5072536;28;20454;-66
2021/09/13 09:44:32;;;;;;;6.57;4.80;;;23.10;99.90;;;;;;5071925;28;20461;-67
2021/09/13 09:47:03;;;;;;;4.67;4.20;;;23.20;99.90;;;;;;5072754;28;20466;-67
2021/09/13 09:49:44;;;;;;;4.17;3.63;;;23.30;99.90;;;;;;5072628;28;20463;-67
2021/09/13 09:52:12;;;;;;;7.30;4.40;;;23.40;99.90;;;;;;5072906;28;20493;-66
2021/09/13 09:54:39;;;;;;;6.83;4.33;;;23.40;99.90;;;;;;5071853;28;20470;-66
2021/09/13 09:57:08;;;;;;;5.60;4.47;;;23.50;99.90;;;;;;5072423;28;20495;-66
2021/09/13 09:59:36;;;;;;;4.40;4.10;;;23.50;99.90;;;;;;5072593;28;20462;-67
2021/09/13 10:02:13;;;;;;;4.30;3.90;;;23.60;99.90;;;;;;5072542;28;20459;-67
2021/09/13 10:04:40;;;;;;;4.90;4.50;;;23.80;99.90;;;;;;5071168;28;20458;-66
2021/09/13 10:07:08;;;;;;;5.50;4.20;;;23.90;99.90;;;;;;5072204;28;20538;-66
2021/09/13 10:09:36;;;;;;;4.90;4.50;;;23.90;99.90;;;;;;5072329;28;20976;-67
2021/09/13 10:12:05;;;;;;;5.23;4.63;;;24.10;99.90;;;;;;5072378;28;20486;-67
2021/09/13 10:14:33;;;;;;;5.73;5.13;;;24.20;99.90;;;;;;5071388;28;20950;-67
2021/09/13 10:17:00;;;;;;;6.60;4.53;;;24.30;99.90;;;;;;5071981;28;20944;-67
2021/09/13 10:19:30;;;;;;;6.30;3.77;;;24.40;99.90;;;;;;5072079;28;20458;-67
2021/09/13 10:21:57;;;;;;;4.80;4.40;;;24.50;99.90;;;;;;5071962;28;20825;-67
2021/09/13 10:24:28;;;;;;;4.80;4.40;;;24.60;99.90;;;;;;5071454;28;20541;-66
2021/09/13 10:27:01;;;;;;;4.07;3.67;;;24.80;99.90;;;;;;5071267;28;20818;-67
2021/09/13 10:29:29;;;;;;;4.73;4.13;;;24.80;99.90;;;;;;5072150;28;20462;-67
2021/09/13 10:32:02;;;;;;;5.10;4.30;;;25.00;99.90;;;;;;5071358;28;21257;-67
2021/09/13 10:34:32;;;;;;;5.73;4.80;;;25.00;99.90;;;;;;5071415;28;20967;-67
2021/09/13 10:37:06;;;;;;;5.60;4.70;;;25.10;99.90;;;;;;5071803;28;20461;-66
2021/09/13 10:39:56;;;;;;;4.40;4.10;;;25.10;99.90;;;;;;5071792;28;20462;-67
2021/09/13 10:42:39;;;;;;;5.00;4.50;;;25.20;99.90;;;;;;5071608;28;20996;-67
2021/09/13 10:45:18;;;;;;;5.03;4.57;;;25.30;99.90;;;;;;5071359;28;20462;-67
2021/09/13 10:47:47;;;;;;;7.03;4.67;;;25.30;99.90;;;;;;5071283;28;20478;-67
2021/09/13 10:50:17;;;;;;;4.57;4.17;;;25.40;99.90;;;;;;5071078;28;20464;-66
2021/09/13 10:52:45;;;;;;;4.67;4.27;;;25.50;99.90;;;;;;5070956;28;20486;-67
2021/09/13 10:55:27;;;;;;;4.67;4.17;;;25.50;99.90;;;;;;5070953;28;20466;-67
2021/09/13 10:58:09;;;;;;;4.67;3.50;;;25.60;99.90;;;;;;5061760;28;20478;-67
2021/09/13 11:01:02;;;;;;;4.80;4.30;;;25.70;99.90;;;;;;5066569;28;20984;-67
2021/09/13 11:03:42;;;;;;;4.10;3.80;;;25.80;99.90;;;;;;5060009;28;20517;-67
2021/09/13 11:06:47;;;;;;;4.13;3.83;;;25.80;99.90;;;;;;5070412;28;20451;-66
2021/09/13 11:09:21;;;;;;;5.77;4.80;;;25.90;99.90;;;;;;5068661;28;20468;-67
2021/09/13 11:12:00;;;;;;;4.20;3.80;;;25.90;99.90;;;;;;5068301;28;20527;-67
2021/09/13 11:14:31;;;;;;;6.43;3.90;;;25.90;99.90;;;;;;5069158;28;20956;-66
2021/09/13 11:17:01;;;;;;;4.67;4.27;;;25.80;99.90;;;;;;5069646;28;20938;-67
2021/09/13 11:19:28;;;;;;;6.57;3.67;;;25.80;99.90;;;;;;5066464;28;20754;-67
2021/09/13 11:21:56;;;;;;;3.87;3.57;;;25.80;99.90;;;;;;5068828;28;20466;-66
2021/09/13 11:24:24;;;;;;;4.00;3.70;;;25.70;99.90;;;;;;5083886;28;20477;-67
2021/09/13 11:26:53;;;;;;;5.03;4.40;;;25.50;99.90;;;;;;5080901;28;20466;-67
2021/09/13 11:29:23;;;;;;;5.30;3.97;;;25.20;99.90;;;;;;5069598;28;20463;-67
2021/09/13 11:31:53;;;;;;;6.73;4.50;;;24.90;99.90;;;;;;5068957;28;20490;-67
2021/09/13 11:34:23;;;;;;;4.63;3.93;;;24.70;99.90;;;;;;5068338;28;20954;-67
2021/09/13 11:37:01;;;;;;;4.00;3.70;;;24.60;99.90;;;;;;5068787;28;20466;-67
2021/09/13 11:39:30;;;;;;;3.77;3.40;;;24.50;99.90;;;;;;5069058;28;20462;-66
2021/09/13 11:42:03;;;;;;;4.10;3.80;;;24.30;99.90;;;;;;5069117;28;20458;-67
2021/09/13 11:44:31;;;;;;;3.60;3.30;;;24.20;99.90;;;;;;5068576;28;21137;-67
2021/09/13 11:47:03;;;;;;;4.03;3.73;;;24.30;99.90;;;;;;5068466;28;20473;-67
2021/09/13 11:49:32;;;;;;;3.87;3.57;;;24.30;99.90;;;;;;5069085;28;20459;-67
2021/09/13 11:52:17;;;;;;;3.73;3.43;;;24.20;99.90;;;;;;5068437;28;20491;-67
2021/09/13 11:54:50;;;;;;;4.17;3.77;;;24.00;99.90;;;;;;5068311;28;21134;-67
2021/09/13 11:57:37;;;;;;;4.67;4.27;;;24.00;99.90;;;;;;5068643;28;20486;-67
2021/09/13 12:00:08;;;;;;;4.23;3.83;;;24.20;99.90;;;;;;5069120;28;20484;-66
2021/09/13 12:02:36;;;;;;;3.80;3.50;;;24.40;99.90;;;;;;5068653;28;20462;-66
2021/09/13 12:05:08;;;;;;;4.27;3.87;;;24.70;99.90;;;;;;5067927;28;20458;-67
2021/09/13 12:07:35;;;;;;;3.33;3.13;;;24.90;99.90;;;;;;5068735;28;20490;-67
2021/09/13 12:10:02;;;;;;;3.50;3.20;;;25.20;99.90;;;;;;5068598;28;20463;-67
2021/09/13 12:12:29;;;;;;;3.77;3.47;;;25.30;99.90;;;;;;5068726;28;20486;-67
2021/09/13 12:15:01;;;;;;;4.03;3.60;;;25.20;99.90;;;;;;5068302;28;20473;-67
2021/09/13 12:17:39;;;;;;;3.90;3.57;;;25.10;99.90;;;;;;5068555;28;20486;-67
2021/09/13 12:20:24;;;;;;;3.80;3.50;;;24.80;99.90;;;;;;5068864;28;20466;-67
2021/09/13 12:23:01;;;;;;;3.70;3.40;;;24.60;99.90;;;;;;5068167;28;20458;-67
2021/09/13 12:25:29;;;;;;;3.80;3.00;;;24.60;99.90;;;;;;5068345;28;20930;-66
2021/09/13 12:28:00;;;;;;;4.00;3.57;;;24.80;99.90;;;;;;5072212;28;20486;-67
2021/09/13 12:30:29;;;;;;;3.57;3.27;;;25.10;99.90;;;;;;5072849;28;21012;-67
2021/09/13 12:32:59;;;;;;;3.50;3.20;;;25.10;99.90;;;;;;5072555;28;20482;-67
2021/09/13 12:35:40;;;;;;;3.50;3.20;;;25.00;99.90;;;;;;5072102;28;20469;-66
2021/09/13 12:38:09;;;;;;;4.03;3.63;;;24.90;99.90;;;;;;5072707;28;20493;-67
2021/09/13 12:40:52;;;;;;;3.83;3.53;;;24.90;99.90;;;;;;5072097;28;20465;-67
2021/09/13 12:43:20;;;;;;;5.00;3.73;;;24.90;99.90;;;;;;5072663;28;20490;-67
2021/09/13 12:45:47;;;;;;;4.17;3.77;;;25.00;99.90;;;;;;5071997;28;20898;-67
2021/09/13 12:48:25;;;;;;;3.37;3.07;;;25.20;99.90;;;;;;5072441;28;20490;-67
2021/09/13 12:50:55;;;;;;;3.23;3.03;;;25.20;99.90;;;;;;5072673;28;20523;-67
2021/09/13 12:53:27;;;;;;;5.63;3.50;;;25.10;99.90;;;;;;5072594;28;20575;-67
2021/09/13 12:55:56;;;;;;;4.10;3.43;;;24.90;99.90;;;;;;5072037;28;21325;-67
2021/09/13 12:58:31;;;;;;;4.03;3.73;;;24.60;99.90;;;;;;5070594;28;20482;-67